createdAt,value
2022-11-19T00:00:21.522Z,19.53
2022-11-19T00:02:50.799Z,18.67
2022-11-19T00:05:19.503Z,20.53
2022-11-19T00:07:51.105Z,21.43
2022-11-19T00:10:19.723Z,19.57
2022-11-19T00:12:55.464Z,20.37
2022-11-19T00:15:25.379Z,19.47
2022-11-19T00:17:55.893Z,19.77
2022-11-19T00:20:24.745Z,22.07
2022-11-19T00:22:54.645Z,19.63
2022-11-19T00:25:24.183Z,20.27
2022-11-19T00:27:55.032Z,20.50
2022-11-19T00:30:46.906Z,21.43
2022-11-19T00:33:14.997Z,21.37
2022-11-19T00:35:44.928Z,24.17
2022-11-19T00:38:13.255Z,20.17
2022-11-19T00:40:41.654Z,19.43
2022-11-19T00:43:29.013Z,23.50
2022-11-19T00:45:59.375Z,22.07
2022-11-19T00:48:28.154Z,23.50
2022-11-19T00:50:56.631Z,23.67
2022-11-19T00:53:25.483Z,24.83
2022-11-19T00:55:53.840Z,25.80
2022-11-19T00:58:22.642Z,22.77
2022-11-19T01:00:51.660Z,25.20
2022-11-19T01:03:22.405Z,23.03
2022-11-19T01:05:50.708Z,24.27
2022-11-19T01:08:19.234Z,26.47
2022-11-19T01:10:48.769Z,24.90
2022-11-19T01:13:34.538Z,27.03
2022-11-19T01:16:03.725Z,26.30
2022-11-19T01:18:34.362Z,25.17
2022-11-19T01:21:07.204Z,27.33
2022-11-19T01:23:35.806Z,28.10
2022-11-19T01:26:04.867Z,25.47
2022-11-19T01:28:33.749Z,27.23
2022-11-19T01:31:02.377Z,26.83
2022-11-19T01:33:30.443Z,27.97
2022-11-19T01:36:02.766Z,27.67
2022-11-19T01:38:32.883Z,31.37
2022-11-19T01:41:02.520Z,29.17
2022-11-19T01:43:45.625Z,28.13
2022-11-19T01:46:16.594Z,29.80
2022-11-19T01:48:48.939Z,30.33
2022-11-19T01:51:24.411Z,28.43
2022-11-19T01:53:55.392Z,29.27
2022-11-19T01:56:26.029Z,33.60
2022-11-19T01:58:59.497Z,31.43
2022-11-19T02:01:32.864Z,32.33
2022-11-19T02:04:05.250Z,32.67
2022-11-19T02:06:35.229Z,32.83
2022-11-19T02:09:04.543Z,34.10
2022-11-19T02:12:02.374Z,31.43
2022-11-19T02:15:12.710Z,33.50
2022-11-19T02:17:53.628Z,34.37
2022-11-19T02:20:46.479Z,33.30
2022-11-19T02:23:46.904Z,35.80
2022-11-19T02:26:45.199Z,33.00
2022-11-19T02:29:29.434Z,34.70
2022-11-19T02:32:08.146Z,32.40
2022-11-19T02:34:43.532Z,30.17
2022-11-19T02:37:16.643Z,31.33
2022-11-19T02:39:50.246Z,34.10
2022-11-19T02:42:25.927Z,30.80
2022-11-19T02:45:00.183Z,32.03
2022-11-19T02:47:33.804Z,32.93
2022-11-19T02:50:07.983Z,33.03
2022-11-19T02:52:38.168Z,31.80
2022-11-19T02:55:11.040Z,33.47
2022-11-19T02:57:39.986Z,31.63
2022-11-19T03:00:27.181Z,29.20
2022-11-19T03:03:21.551Z,28.43
2022-11-19T03:05:56.224Z,30.50
2022-11-19T03:08:25.801Z,33.27
2022-11-19T03:11:05.160Z,32.20
2022-11-19T03:13:58.023Z,29.23
2022-11-19T03:16:42.864Z,30.83
2022-11-19T03:19:21.919Z,32.17
2022-11-19T03:21:56.545Z,28.27
2022-11-19T03:24:30.690Z,32.13
2022-11-19T03:27:05.056Z,28.90
2022-11-19T03:29:37.061Z,30.03
2022-11-19T03:32:13.248Z,29.43
2022-11-19T03:34:46.330Z,31.87
2022-11-19T03:37:19.094Z,33.13
2022-11-19T03:39:51.929Z,29.87
2022-11-19T03:42:23.396Z,30.47
2022-11-19T03:45:01.131Z,33.53
2022-11-19T03:47:34.876Z,31.03
2022-11-19T03:50:08.902Z,30.83
2022-11-19T03:52:37.304Z,31.67
2022-11-19T03:55:06.447Z,28.60
2022-11-19T03:57:41.555Z,32.87
2022-11-19T04:00:11.519Z,29.80
2022-11-19T04:02:39.687Z,30.23
2022-11-19T04:05:12.331Z,28.67
2022-11-19T04:07:41.035Z,30.17
2022-11-19T04:10:10.610Z,29.53
2022-11-19T04:12:39.204Z,28.57
2022-11-19T04:15:08.449Z,30.20
2022-11-19T04:17:38.831Z,29.07
2022-11-19T04:20:12.005Z,31.47
2022-11-19T04:22:40.679Z,29.17
2022-11-19T04:25:10.196Z,29.60
2022-11-19T04:27:38.990Z,30.60
2022-11-19T04:30:08.448Z,27.37
2022-11-19T04:32:37.190Z,29.20
2022-11-19T04:35:12.146Z,28.97
2022-11-19T04:37:40.778Z,28.90
2022-11-19T04:40:10.562Z,25.97
2022-11-19T04:42:39.405Z,27.30
2022-11-19T04:45:09.875Z,25.13
2022-11-19T04:47:38.350Z,28.03
2022-11-19T04:50:08.147Z,28.37
2022-11-19T04:52:40.894Z,28.40
2022-11-19T04:55:10.981Z,27.67
2022-11-19T04:57:39.577Z,26.83
2022-11-19T05:00:09.428Z,27.50
2022-11-19T05:02:37.613Z,28.23
2022-11-19T05:05:06.470Z,28.40
2022-11-19T05:07:34.679Z,26.83
2022-11-19T05:10:05.637Z,27.67
2022-11-19T05:12:34.118Z,26.60
2022-11-19T05:15:02.547Z,25.43
2022-11-19T05:17:30.667Z,24.27
2022-11-19T05:20:00.464Z,24.97
2022-11-19T05:22:28.938Z,26.37
2022-11-19T05:24:57.078Z,27.60
2022-11-19T05:27:27.465Z,25.47
2022-11-19T05:29:55.847Z,29.20
2022-11-19T05:32:24.398Z,27.13
2022-11-19T05:34:52.942Z,28.47
2022-11-19T05:37:21.497Z,26.03
2022-11-19T05:39:49.955Z,25.43
2022-11-19T05:42:18.347Z,29.03
2022-11-19T05:44:48.646Z,26.77
2022-11-19T05:47:17.750Z,25.90
2022-11-19T05:49:46.142Z,27.97
2022-11-19T05:52:14.848Z,27.83
2022-11-19T05:54:43.095Z,29.13
2022-11-19T05:57:11.372Z,27.40
2022-11-19T05:59:43.691Z,28.57
2022-11-19T06:02:13.863Z,29.80
2022-11-19T06:04:42.313Z,24.57
2022-11-19T06:07:11.675Z,23.53
2022-11-19T06:09:40.138Z,25.10
2022-11-19T06:12:08.838Z,25.90
2022-11-19T06:14:37.118Z,25.07
2022-11-19T06:17:05.625Z,25.43
2022-11-19T06:19:36.723Z,25.93
2022-11-19T06:22:05.797Z,25.67
2022-11-19T06:24:35.501Z,24.80
2022-11-19T06:27:03.939Z,31.03
2022-11-19T06:29:32.161Z,29.63
2022-11-19T06:32:00.413Z,39.00
2022-11-19T06:34:28.795Z,44.10
2022-11-19T06:36:59.131Z,80.33
2022-11-19T06:39:27.540Z,124.77
2022-11-19T06:42:15.904Z,131.97
2022-11-19T06:44:44.027Z,75.17
2022-11-19T06:47:12.499Z,73.03
2022-11-19T06:49:41.010Z,46.70
2022-11-19T06:52:10.707Z,32.43
2022-11-19T06:54:42.980Z,27.80
2022-11-19T06:57:11.541Z,31.80
2022-11-19T06:59:40.372Z,28.87
2022-11-19T07:02:09.661Z,27.97
2022-11-19T07:04:38.073Z,28.83
2022-11-19T07:07:07.185Z,26.73
2022-11-19T07:09:37.118Z,27.40
2022-11-19T07:12:06.113Z,27.00
2022-11-19T07:14:34.553Z,30.90
2022-11-19T07:17:03.032Z,29.20
2022-11-19T07:19:31.762Z,26.47
2022-11-19T07:22:00.216Z,30.20
2022-11-19T07:24:28.775Z,27.17
2022-11-19T07:26:58.877Z,31.00
2022-11-19T07:29:27.123Z,26.20
2022-11-19T07:31:55.591Z,28.77
2022-11-19T07:34:24.254Z,27.37
2022-11-19T07:36:54.227Z,29.00
2022-11-19T07:39:23.183Z,28.27
2022-11-19T07:42:09.153Z,26.37
2022-11-19T07:44:38.961Z,26.33
2022-11-19T07:47:08.437Z,39.87
2022-11-19T07:49:36.993Z,34.27
2022-11-19T07:52:06.523Z,29.23
2022-11-19T07:54:34.671Z,35.93
2022-11-19T07:57:03.653Z,34.00
2022-11-19T07:59:31.828Z,42.50
2022-11-19T08:02:01.560Z,31.90
2022-11-19T08:04:30.599Z,28.83
2022-11-19T08:07:00.392Z,31.73
2022-11-19T08:09:28.924Z,38.40
2022-11-19T08:11:57.409Z,31.23
2022-11-19T08:14:25.577Z,37.67
2022-11-19T08:17:10.759Z,31.40
2022-11-19T08:19:41.923Z,30.23
2022-11-19T08:22:11.972Z,30.70
2022-11-19T08:24:40.186Z,32.03
2022-11-19T08:27:08.694Z,31.57
2022-11-19T08:29:36.852Z,34.87
2022-11-19T08:32:05.270Z,28.17
2022-11-19T08:34:34.390Z,30.73
2022-11-19T08:37:04.377Z,29.70
2022-11-19T08:39:32.458Z,29.63
2022-11-19T08:42:18.272Z,27.83
2022-11-19T08:44:46.578Z,25.77
2022-11-19T08:47:15.485Z,28.57
2022-11-19T08:49:45.833Z,27.57
2022-11-19T08:52:18.690Z,27.77
2022-11-19T08:54:47.407Z,25.43
2022-11-19T08:57:15.476Z,26.43
2022-11-19T08:59:43.813Z,24.47
2022-11-19T09:02:12.786Z,29.73
2022-11-19T09:04:41.659Z,24.60
2022-11-19T09:07:10.662Z,29.50
2022-11-19T09:09:41.337Z,25.00
2022-11-19T09:12:10.741Z,30.10
2022-11-19T09:14:39.728Z,23.43
2022-11-19T09:17:09.146Z,27.37
2022-11-19T09:19:37.834Z,25.97
2022-11-19T09:22:06.406Z,29.17
2022-11-19T09:24:34.583Z,30.03
2022-11-19T09:27:05.065Z,22.50
2022-11-19T09:29:33.384Z,27.27
2022-11-19T09:32:03.901Z,25.60
2022-11-19T09:34:33.562Z,24.63
2022-11-19T09:37:01.920Z,21.67
2022-11-19T09:39:30.717Z,23.03
2022-11-19T09:42:12.615Z,20.47
2022-11-19T09:44:55.963Z,21.80
2022-11-19T09:47:35.832Z,21.07
2022-11-19T09:50:13.820Z,22.10
2022-11-19T09:52:47.661Z,21.10
2022-11-19T09:55:20.745Z,25.03
2022-11-19T09:57:54.394Z,22.07
2022-11-19T10:00:25.311Z,20.07
2022-11-19T10:02:54.327Z,18.37
2022-11-19T10:05:38.573Z,17.30
2022-11-19T10:08:21.789Z,16.00
2022-11-19T10:11:00.454Z,19.77
2022-11-19T10:13:45.051Z,17.90
2022-11-19T10:16:30.196Z,19.53
2022-11-19T10:19:07.199Z,17.20
2022-11-19T10:21:45.651Z,18.40
2022-11-19T10:24:18.679Z,16.47
2022-11-19T10:26:54.334Z,17.43
2022-11-19T10:29:28.551Z,16.20
2022-11-19T10:32:18.526Z,17.67
2022-11-19T10:34:47.958Z,17.10
2022-11-19T10:37:20.786Z,18.23
2022-11-19T10:39:55.013Z,16.60
2022-11-19T10:42:29.657Z,17.77
2022-11-19T10:45:03.382Z,19.80
2022-11-19T10:47:40.939Z,14.40
2022-11-19T10:50:19.001Z,16.37
2022-11-19T10:52:53.479Z,18.03
2022-11-19T10:55:26.132Z,14.33
2022-11-19T10:58:07.240Z,16.60
2022-11-19T11:00:39.075Z,15.83
2022-11-19T11:03:20.798Z,15.60
2022-11-19T11:05:59.227Z,14.47
2022-11-19T11:08:27.667Z,15.53
2022-11-19T11:10:56.344Z,14.77
2022-11-19T11:13:49.213Z,16.87
2022-11-19T11:16:21.739Z,16.50
2022-11-19T11:18:51.163Z,16.73
2022-11-19T11:21:43.182Z,14.93
2022-11-19T11:24:13.505Z,17.73
2022-11-19T11:26:42.370Z,15.27
2022-11-19T11:29:27.332Z,16.53
2022-11-19T11:31:57.084Z,15.23
2022-11-19T11:34:35.081Z,13.63
2022-11-19T11:37:05.261Z,16.50
2022-11-19T11:39:37.885Z,13.67
2022-11-19T11:42:17.587Z,14.67
2022-11-19T11:44:52.434Z,17.73
2022-11-19T11:47:26.720Z,14.83
2022-11-19T11:50:06.049Z,15.20
2022-11-19T11:52:38.722Z,14.97
2022-11-19T11:55:10.402Z,14.67
2022-11-19T11:57:53.289Z,15.43
2022-11-19T12:00:36.864Z,17.50
2022-11-19T12:03:08.776Z,14.73
2022-11-19T12:05:53.227Z,22.37
2022-11-19T12:08:42.766Z,53.00
2022-11-19T12:11:19.064Z,24.07
2022-11-19T12:13:55.489Z,14.37
2022-11-19T12:16:38.812Z,15.43
2022-11-19T12:19:29.684Z,15.03
2022-11-19T12:22:05.913Z,15.30
2022-11-19T12:24:44.996Z,15.23
2022-11-19T12:27:23.589Z,14.90
2022-11-19T12:30:01.602Z,14.07
2022-11-19T12:32:52.163Z,17.57
2022-11-19T12:35:45.446Z,14.20
2022-11-19T12:38:38.330Z,14.77
2022-11-19T12:41:27.436Z,16.63
2022-11-19T12:44:00.359Z,18.23
2022-11-19T12:46:45.538Z,16.93
2022-11-19T12:49:39.772Z,15.00
2022-11-19T12:52:35.890Z,13.03
2022-11-19T12:55:15.123Z,13.90
2022-11-19T12:57:51.758Z,13.03
2022-11-19T13:00:22.561Z,15.60
2022-11-19T13:03:02.702Z,14.13
2022-11-19T13:05:41.130Z,15.77
2022-11-19T13:08:18.515Z,14.00
2022-11-19T13:10:51.270Z,14.57
2022-11-19T13:13:26.381Z,18.20
2022-11-19T13:16:00.542Z,16.50
2022-11-19T13:18:35.329Z,18.23
2022-11-19T13:21:07.391Z,17.77
2022-11-19T13:23:41.605Z,18.37
2022-11-19T13:26:14.882Z,14.87
2022-11-19T13:28:48.784Z,28.30
2022-11-19T13:31:27.763Z,17.30
2022-11-19T13:34:01.907Z,14.20
2022-11-19T13:36:36.832Z,23.03
2022-11-19T13:39:16.441Z,17.37
2022-11-19T13:42:07.906Z,15.57
2022-11-19T13:44:41.773Z,13.27
2022-11-19T13:47:16.705Z,13.40
2022-11-19T13:49:48.411Z,17.37
2022-11-19T13:52:26.292Z,14.40
2022-11-19T13:54:59.092Z,16.80
2022-11-19T13:57:32.940Z,13.43
2022-11-19T14:00:06.264Z,15.33
2022-11-19T14:03:00.554Z,13.97
2022-11-19T14:06:03.862Z,15.23
2022-11-19T14:08:49.845Z,16.80
2022-11-19T14:11:39.364Z,14.30
2022-11-19T14:14:45.987Z,16.13
2022-11-19T14:17:44.078Z,14.77
2022-11-19T14:20:54.628Z,15.57
2022-11-19T14:24:02.404Z,16.40
2022-11-19T14:27:05.338Z,14.63
2022-11-19T14:29:59.726Z,17.13
2022-11-19T14:32:39.929Z,14.80
2022-11-19T14:35:33.183Z,14.63
2022-11-19T14:38:37.198Z,12.93
2022-11-19T14:41:32.256Z,13.17
2022-11-19T14:44:13.260Z,14.17
2022-11-19T14:46:48.410Z,16.00
2022-11-19T14:49:34.966Z,13.00
2022-11-19T14:52:04.654Z,14.83
2022-11-19T14:54:38.145Z,16.07
2022-11-19T14:57:16.960Z,14.40
2022-11-19T15:00:02.063Z,17.37
2022-11-19T15:02:38.043Z,15.37
2022-11-19T15:05:17.093Z,14.30
2022-11-19T15:07:54.276Z,14.13
2022-11-19T15:10:31.593Z,13.70
2022-11-19T15:13:17.930Z,13.53
2022-11-19T15:15:52.345Z,12.60
2022-11-19T15:18:59.146Z,12.17
2022-11-19T15:21:45.467Z,12.47
2022-11-19T15:24:26.959Z,14.10
2022-11-19T15:27:08.271Z,12.57
2022-11-19T15:30:13.171Z,13.97
2022-11-19T15:33:17.384Z,12.67
2022-11-19T15:36:22.874Z,12.93
2022-11-19T15:39:03.334Z,14.13
2022-11-19T15:41:36.746Z,15.63
2022-11-19T15:44:10.219Z,13.27
2022-11-19T15:46:45.003Z,13.00
2022-11-19T15:49:19.963Z,16.00
2022-11-19T15:52:01.193Z,12.53
2022-11-19T15:54:33.034Z,14.10
2022-11-19T15:57:06.080Z,13.87
2022-11-19T15:59:37.859Z,15.67
2022-11-19T16:02:20.208Z,15.67
2022-11-19T16:04:51.725Z,14.10
2022-11-19T16:07:30.403Z,13.97
2022-11-19T16:10:00.900Z,13.30
2022-11-19T16:12:51.807Z,13.90
2022-11-19T16:15:42.048Z,16.23
2022-11-19T16:18:20.169Z,35.40
2022-11-19T16:20:50.741Z,64.37
2022-11-19T16:23:22.962Z,57.13
2022-11-19T16:25:51.902Z,58.03
2022-11-19T16:28:25.213Z,48.43
2022-11-19T16:30:55.633Z,67.37
2022-11-19T16:33:30.188Z,35.73
2022-11-19T16:36:13.441Z,22.10
2022-11-19T16:38:48.934Z,29.50
2022-11-19T16:41:37.562Z,20.50
2022-11-19T16:44:11.082Z,23.57
2022-11-19T16:46:40.899Z,18.73
2022-11-19T16:49:16.548Z,17.10
2022-11-19T16:51:54.521Z,21.00
2022-11-19T16:54:47.598Z,19.97
2022-11-19T16:57:19.622Z,15.20
2022-11-19T16:59:51.295Z,16.33
2022-11-19T17:02:22.037Z,16.67
2022-11-19T17:04:53.928Z,14.90
2022-11-19T17:07:28.291Z,14.33
2022-11-19T17:10:30.741Z,15.53
2022-11-19T17:13:03.093Z,14.13
2022-11-19T17:15:39.054Z,14.77
2022-11-19T17:18:31.163Z,14.73
2022-11-19T17:21:03.818Z,18.00
2022-11-19T17:23:34.123Z,16.73
2022-11-19T17:26:06.975Z,16.17
2022-11-19T17:28:41.493Z,16.67
2022-11-19T17:31:18.583Z,16.47
2022-11-19T17:33:54.072Z,19.63
2022-11-19T17:36:23.220Z,16.13
2022-11-19T17:38:51.800Z,15.17
2022-11-19T17:41:38.570Z,16.57
2022-11-19T17:44:27.998Z,16.87
2022-11-19T17:46:57.008Z,15.93
2022-11-19T17:49:25.481Z,14.90
2022-11-19T17:51:55.527Z,15.70
2022-11-19T17:54:24.605Z,13.60
2022-11-19T17:56:54.707Z,12.77
2022-11-19T17:59:23.121Z,14.70
2022-11-19T18:01:52.485Z,15.23
2022-11-19T18:04:21.321Z,12.57
2022-11-19T18:06:50.458Z,12.90
2022-11-19T18:09:21.193Z,14.03
2022-11-19T18:11:49.572Z,16.47
2022-11-19T18:14:20.196Z,17.43
2022-11-19T18:16:48.749Z,14.60
2022-11-19T18:19:26.819Z,16.43
2022-11-19T18:21:56.185Z,13.03
2022-11-19T18:24:25.158Z,11.70
2022-11-19T18:26:53.780Z,11.87
2022-11-19T18:29:24.187Z,13.67
2022-11-19T18:31:53.554Z,12.83
2022-11-19T18:34:25.854Z,13.17
2022-11-19T18:36:55.247Z,14.43
2022-11-19T18:39:23.821Z,13.67
2022-11-19T18:41:52.833Z,12.37
2022-11-19T18:44:33.842Z,13.17
2022-11-19T18:47:06.391Z,14.23
2022-11-19T18:49:35.305Z,12.53
2022-11-19T18:52:03.949Z,13.27
2022-11-19T18:54:32.370Z,13.13
2022-11-19T18:57:01.060Z,13.60
2022-11-19T18:59:30.775Z,11.73
2022-11-19T19:02:00.435Z,12.07
2022-11-19T19:04:29.029Z,14.13
2022-11-19T19:06:59.372Z,13.00
2022-11-19T19:09:28.878Z,13.60
2022-11-19T19:12:16.770Z,13.53
2022-11-19T19:14:48.544Z,15.87
2022-11-19T19:17:17.975Z,14.27
2022-11-19T19:19:46.925Z,14.87
2022-11-19T19:22:15.447Z,12.87
2022-11-19T19:24:44.315Z,14.40
2022-11-19T19:27:12.662Z,14.37
2022-11-19T19:29:41.408Z,13.20
2022-11-19T19:32:11.196Z,14.03
2022-11-19T19:34:40.675Z,13.07
2022-11-19T19:37:10.131Z,16.50
2022-11-19T19:39:38.871Z,13.70
2022-11-19T19:42:08.913Z,13.50
2022-11-19T19:44:38.293Z,13.37
2022-11-19T19:47:07.184Z,13.07
2022-11-19T19:49:39.063Z,14.07
2022-11-19T19:52:07.782Z,14.00
2022-11-19T19:54:36.348Z,14.00
2022-11-19T19:57:06.015Z,13.73
2022-11-19T19:59:34.698Z,17.07
2022-11-19T20:02:03.237Z,13.03
2022-11-19T20:04:33.856Z,14.20
2022-11-19T20:07:04.151Z,12.90
2022-11-19T20:09:32.449Z,13.27
2022-11-19T20:12:01.070Z,12.23
2022-11-19T20:14:29.168Z,15.33
2022-11-19T20:16:59.156Z,18.90
2022-11-19T20:19:27.586Z,12.70
2022-11-19T20:21:56.638Z,13.43
2022-11-19T20:24:26.379Z,13.83
2022-11-19T20:26:54.507Z,12.50
2022-11-19T20:29:24.376Z,13.60
2022-11-19T20:31:53.567Z,13.97
2022-11-19T20:34:21.922Z,15.43
2022-11-19T20:36:50.737Z,15.17
2022-11-19T20:39:19.423Z,17.23
2022-11-19T20:42:06.978Z,24.63
2022-11-19T20:44:35.210Z,15.87
2022-11-19T20:47:04.961Z,17.03
2022-11-19T20:49:35.559Z,12.57
2022-11-19T20:52:07.642Z,13.67
2022-11-19T20:54:36.087Z,11.73
2022-11-19T20:57:06.117Z,12.53
2022-11-19T20:59:34.534Z,13.27
2022-11-19T21:02:03.176Z,12.37
2022-11-19T21:04:36.624Z,12.60
2022-11-19T21:07:05.509Z,12.93
2022-11-19T21:09:34.037Z,13.60
2022-11-19T21:12:02.281Z,17.40
2022-11-19T21:14:33.640Z,15.53
2022-11-19T21:17:02.143Z,13.80
2022-11-19T21:19:30.562Z,13.40
2022-11-19T21:21:58.714Z,14.10
2022-11-19T21:24:29.300Z,13.20
2022-11-19T21:26:57.792Z,18.17
2022-11-19T21:29:26.733Z,14.93
2022-11-19T21:31:56.925Z,13.83
2022-11-19T21:34:25.159Z,13.70
2022-11-19T21:36:53.477Z,14.07
2022-11-19T21:39:22.678Z,15.70
2022-11-19T21:41:51.792Z,13.80
2022-11-19T21:44:21.695Z,13.10
2022-11-19T21:46:50.985Z,12.57
2022-11-19T21:49:21.281Z,11.83
2022-11-19T21:51:53.344Z,11.67
2022-11-19T21:54:22.230Z,14.03
2022-11-19T21:56:50.786Z,12.17
2022-11-19T21:59:19.485Z,13.33
2022-11-19T22:01:53.327Z,12.50
2022-11-19T22:04:24.388Z,13.03
2022-11-19T22:06:53.185Z,11.10
2022-11-19T22:09:23.141Z,14.17
2022-11-19T22:11:51.415Z,13.90
2022-11-19T22:14:22.246Z,13.23
2022-11-19T22:16:51.941Z,12.67
2022-11-19T22:19:20.977Z,12.60
2022-11-19T22:21:51.180Z,14.47
2022-11-19T22:24:19.571Z,13.00
2022-11-19T22:26:48.094Z,13.50
2022-11-19T22:29:17.007Z,13.73
2022-11-19T22:31:45.486Z,12.13
2022-11-19T22:34:14.804Z,11.33
2022-11-19T22:36:45.829Z,14.73
2022-11-19T22:39:15.421Z,13.60
2022-11-19T22:41:43.880Z,14.10
2022-11-19T22:44:12.100Z,13.83
2022-11-19T22:46:40.419Z,14.17
2022-11-19T22:49:08.857Z,11.97
2022-11-19T22:51:37.468Z,13.27
2022-11-19T22:54:09.477Z,12.47
2022-11-19T22:56:39.539Z,14.10
2022-11-19T22:59:07.947Z,12.53
2022-11-19T23:01:37.575Z,12.70
2022-11-19T23:04:07.820Z,12.40
2022-11-19T23:06:36.913Z,12.50
2022-11-19T23:09:06.844Z,15.00
2022-11-19T23:11:51.860Z,13.17
2022-11-19T23:14:22.529Z,12.67
2022-11-19T23:16:50.884Z,13.60
2022-11-19T23:19:19.927Z,14.10
2022-11-19T23:21:48.790Z,13.23
2022-11-19T23:24:17.614Z,18.37
2022-11-19T23:26:45.863Z,15.00
2022-11-19T23:29:14.019Z,14.17
2022-11-19T23:31:43.847Z,16.40
2022-11-19T23:34:12.459Z,14.33
2022-11-19T23:36:42.672Z,13.77
2022-11-19T23:39:16.335Z,12.60
2022-11-19T23:41:46.894Z,13.67
2022-11-19T23:44:16.581Z,13.87
2022-11-19T23:46:47.442Z,15.47
2022-11-19T23:49:16.236Z,15.93
2022-11-19T23:51:44.789Z,13.87
2022-11-19T23:54:14.013Z,15.60
2022-11-19T23:56:42.655Z,15.23
2022-11-19T23:59:10.935Z,17.20
